sensor_id;sensor_type;location;lat;lon;timestamp;pressure;altitude;pressure_sealevel;temperature;humidity
5522;BME280;2783;48.730;8.006;2023-03-18T00:01:46;99648.22;;;12.28;63.34
5522;BME280;2783;48.730;8.006;2023-03-18T00:04:12;99639.56;;;12.23;63.38
5522;BME280;2783;48.730;8.006;2023-03-18T00:06:37;99637.94;;;12.20;63.35
5522;BME280;2783;48.730;8.006;2023-03-18T00:09:02;99642.47;;;12.18;63.86
5522;BME280;2783;48.730;8.006;2023-03-18T00:11:28;99644.31;;;12.16;64.23
5522;BME280;2783;48.730;8.006;2023-03-18T00:13:54;99642.59;;;12.15;63.55
5522;BME280;2783;48.730;8.006;2023-03-18T00:16:20;99643.47;;;12.16;64.21
5522;BME280;2783;48.730;8.006;2023-03-18T00:18:45;99643.50;;;12.14;64.23
5522;BME280;2783;48.730;8.006;2023-03-18T00:21:11;99653.56;;;12.09;64.62
5522;BME280;2783;48.730;8.006;2023-03-18T00:23:36;99650.06;;;12.07;64.12
5522;BME280;2783;48.730;8.006;2023-03-18T00:26:02;99656.25;;;12.08;64.19
5522;BME280;2783;48.730;8.006;2023-03-18T00:28:28;99662.53;;;12.07;63.70
5522;BME280;2783;48.730;8.006;2023-03-18T00:30:54;99656.25;;;12.08;63.52
5522;BME280;2783;48.730;8.006;2023-03-18T00:33:21;99657.28;;;12.05;63.25
5522;BME280;2783;48.730;8.006;2023-03-18T00:35:47;99666.31;;;12.01;63.66
5522;BME280;2783;48.730;8.006;2023-03-18T00:38:13;99662.00;;;11.99;62.98
5522;BME280;2783;48.730;8.006;2023-03-18T00:40:46;99670.97;;;11.96;62.93
5522;BME280;2783;48.730;8.006;2023-03-18T00:43:35;99665.94;;;11.90;63.25
5522;BME280;2783;48.730;8.006;2023-03-18T00:46:10;99664.16;;;11.90;62.23
5522;BME280;2783;48.730;8.006;2023-03-18T00:48:36;99672.88;;;11.94;63.44
5522;BME280;2783;48.730;8.006;2023-03-18T00:51:01;99672.06;;;11.92;61.84
5522;BME280;2783;48.730;8.006;2023-03-18T00:53:26;99671.19;;;11.91;62.71
5522;BME280;2783;48.730;8.006;2023-03-18T00:55:52;99670.22;;;11.94;62.10
5522;BME280;2783;48.730;8.006;2023-03-18T00:58:17;99668.31;;;11.96;62.33
5522;BME280;2783;48.730;8.006;2023-03-18T01:00:43;99673.66;;;11.96;62.36
5522;BME280;2783;48.730;8.006;2023-03-18T01:03:09;99667.66;;;11.91;61.88
5522;BME280;2783;48.730;8.006;2023-03-18T01:05:34;99671.13;;;11.93;61.87
5522;BME280;2783;48.730;8.006;2023-03-18T01:08:00;99675.47;;;11.96;60.34
5522;BME280;2783;48.730;8.006;2023-03-18T01:10:26;99668.28;;;11.98;61.16
5522;BME280;2783;48.730;8.006;2023-03-18T01:12:52;99678.13;;;11.96;62.29
5522;BME280;2783;48.730;8.006;2023-03-18T01:15:18;99674.81;;;11.90;62.16
5522;BME280;2783;48.730;8.006;2023-03-18T01:17:44;99670.47;;;11.88;61.73
5522;BME280;2783;48.730;8.006;2023-03-18T01:20:10;99668.88;;;11.84;63.02
5522;BME280;2783;48.730;8.006;2023-03-18T01:22:37;99658.22;;;11.84;61.85
5522;BME280;2783;48.730;8.006;2023-03-18T01:25:05;99658.06;;;11.87;60.69
5522;BME280;2783;48.730;8.006;2023-03-18T01:27:32;99660.66;;;11.88;61.21
5522;BME280;2783;48.730;8.006;2023-03-18T01:29:57;99659.78;;;11.88;59.71
5522;BME280;2783;48.730;8.006;2023-03-18T01:32:23;99660.53;;;11.91;60.37
5522;BME280;2783;48.730;8.006;2023-03-18T01:34:49;99663.28;;;11.90;60.55
5522;BME280;2783;48.730;8.006;2023-03-18T01:37:14;99660.59;;;11.90;61.28
5522;BME280;2783;48.730;8.006;2023-03-18T01:39:39;99666.88;;;11.89;61.81
5522;BME280;2783;48.730;8.006;2023-03-18T01:42:05;99656.34;;;11.86;60.75
5522;BME280;2783;48.730;8.006;2023-03-18T01:44:30;99657.41;;;11.82;61.39
5522;BME280;2783;48.730;8.006;2023-03-18T01:46:55;99659.94;;;11.85;61.32
5522;BME280;2783;48.730;8.006;2023-03-18T01:52:03;99656.59;;;11.80;61.54
5522;BME280;2783;48.730;8.006;2023-03-18T01:54:30;99654.00;;;11.78;62.58
5522;BME280;2783;48.730;8.006;2023-03-18T01:56:56;99651.53;;;11.74;63.44
5522;BME280;2783;48.730;8.006;2023-03-18T01:59:22;99659.69;;;11.71;62.97
5522;BME280;2783;48.730;8.006;2023-03-18T02:01:52;99658.00;;;11.68;63.26
5522;BME280;2783;48.730;8.006;2023-03-18T02:04:18;99655.41;;;11.67;63.63
5522;BME280;2783;48.730;8.006;2023-03-18T02:06:45;99662.69;;;11.62;63.39
5522;BME280;2783;48.730;8.006;2023-03-18T02:09:11;99661.16;;;11.56;64.34
5522;BME280;2783;48.730;8.006;2023-03-18T02:11:37;99661.34;;;11.52;65.49
5522;BME280;2783;48.730;8.006;2023-03-18T02:14:03;99657.22;;;11.45;65.88
5522;BME280;2783;48.730;8.006;2023-03-18T02:16:33;99655.75;;;11.38;67.84
5522;BME280;2783;48.730;8.006;2023-03-18T02:19:00;99658.91;;;11.26;68.95
5522;BME280;2783;48.730;8.006;2023-03-18T02:22:31;99651.31;;;11.17;68.72
5522;BME280;2783;48.730;8.006;2023-03-18T02:24:46;99658.69;;;11.09;69.35
5522;BME280;2783;48.730;8.006;2023-03-18T02:29:39;99654.56;;;11.02;69.76
5522;BME280;2783;48.730;8.006;2023-03-18T02:32:06;99656.28;;;11.03;70.24
5522;BME280;2783;48.730;8.006;2023-03-18T02:34:32;99650.09;;;11.02;69.30
5522;BME280;2783;48.730;8.006;2023-03-18T02:36:58;99649.25;;;11.02;69.96
5522;BME280;2783;48.730;8.006;2023-03-18T02:39:23;99653.69;;;11.01;71.42
5522;BME280;2783;48.730;8.006;2023-03-18T02:41:48;99657.38;;;10.99;72.20
5522;BME280;2783;48.730;8.006;2023-03-18T02:44:14;99658.41;;;10.95;71.69
5522;BME280;2783;48.730;8.006;2023-03-18T02:46:53;99652.31;;;10.91;72.44
5522;BME280;2783;48.730;8.006;2023-03-18T02:49:20;99660.38;;;10.90;71.88
5522;BME280;2783;48.730;8.006;2023-03-18T02:51:46;99665.63;;;10.91;70.96
5522;BME280;2783;48.730;8.006;2023-03-18T02:54:14;99663.72;;;10.95;71.18
5522;BME280;2783;48.730;8.006;2023-03-18T02:56:41;99669.78;;;10.98;71.39
5522;BME280;2783;48.730;8.006;2023-03-18T02:59:07;99670.66;;;10.99;70.71
5522;BME280;2783;48.730;8.006;2023-03-18T03:01:33;99663.34;;;11.04;69.68
5522;BME280;2783;48.730;8.006;2023-03-18T03:04:00;99670.28;;;11.08;69.78
5522;BME280;2783;48.730;8.006;2023-03-18T03:06:25;99672.69;;;11.14;69.88
5522;BME280;2783;48.730;8.006;2023-03-18T03:08:50;99664.47;;;11.20;69.69
5522;BME280;2783;48.730;8.006;2023-03-18T03:11:16;99664.22;;;11.26;70.85
5522;BME280;2783;48.730;8.006;2023-03-18T03:13:41;99665.72;;;11.33;69.67
5522;BME280;2783;48.730;8.006;2023-03-18T03:16:09;99668.09;;;11.39;67.77
5522;BME280;2783;48.730;8.006;2023-03-18T03:18:34;99674.34;;;11.59;67.34
5522;BME280;2783;48.730;8.006;2023-03-18T03:21:00;99673.84;;;11.50;66.52
5522;BME280;2783;48.730;8.006;2023-03-18T03:23:25;99684.41;;;11.53;67.00
5522;BME280;2783;48.730;8.006;2023-03-18T03:25:51;99679.06;;;11.53;66.95
5522;BME280;2783;48.730;8.006;2023-03-18T03:28:16;99683.44;;;11.54;67.63
5522;BME280;2783;48.730;8.006;2023-03-18T03:30:42;99675.59;;;11.51;67.21
5522;BME280;2783;48.730;8.006;2023-03-18T03:33:07;99679.31;;;11.47;68.62
5522;BME280;2783;48.730;8.006;2023-03-18T03:35:34;99681.28;;;11.42;68.33
5522;BME280;2783;48.730;8.006;2023-03-18T03:37:59;99684.28;;;11.34;68.24
5522;BME280;2783;48.730;8.006;2023-03-18T03:40:25;99683.66;;;11.28;68.19
5522;BME280;2783;48.730;8.006;2023-03-18T03:42:51;99684.84;;;11.21;68.72
5522;BME280;2783;48.730;8.006;2023-03-18T03:45:17;99679.84;;;11.13;67.55
5522;BME280;2783;48.730;8.006;2023-03-18T03:47:43;99680.94;;;11.08;67.48
5522;BME280;2783;48.730;8.006;2023-03-18T03:50:10;99680.06;;;11.07;66.86
5522;BME280;2783;48.730;8.006;2023-03-18T03:52:36;99675.59;;;11.08;66.96
5522;BME280;2783;48.730;8.006;2023-03-18T03:55:03;99676.41;;;11.10;66.54
5522;BME280;2783;48.730;8.006;2023-03-18T03:57:28;99678.69;;;11.19;67.78
5522;BME280;2783;48.730;8.006;2023-03-18T03:59:53;99678.06;;;11.12;68.71
5522;BME280;2783;48.730;8.006;2023-03-18T04:02:20;99678.97;;;11.13;70.37
5522;BME280;2783;48.730;8.006;2023-03-18T04:04:47;99682.56;;;11.12;70.93
5522;BME280;2783;48.730;8.006;2023-03-18T04:07:13;99675.97;;;11.20;70.92
5522;BME280;2783;48.730;8.006;2023-03-18T04:09:39;99679.31;;;11.25;71.07
5522;BME280;2783;48.730;8.006;2023-03-18T04:12:05;99677.59;;;11.24;72.77
5522;BME280;2783;48.730;8.006;2023-03-18T04:14:30;99678.59;;;11.22;72.83
5522;BME280;2783;48.730;8.006;2023-03-18T04:16:56;99682.31;;;11.18;72.67
5522;BME280;2783;48.730;8.006;2023-03-18T04:19:23;99684.28;;;11.13;71.10
5522;BME280;2783;48.730;8.006;2023-03-18T04:21:48;99677.25;;;11.12;71.26
5522;BME280;2783;48.730;8.006;2023-03-18T04:24:14;99686.13;;;11.11;71.12
5522;BME280;2783;48.730;8.006;2023-03-18T04:26:39;99687.97;;;11.09;71.35
5522;BME280;2783;48.730;8.006;2023-03-18T04:29:04;99687.19;;;11.07;71.46
5522;BME280;2783;48.730;8.006;2023-03-18T04:31:30;99684.63;;;11.04;72.16
5522;BME280;2783;48.730;8.006;2023-03-18T04:33:56;99685.50;;;11.04;71.40
5522;BME280;2783;48.730;8.006;2023-03-18T04:36:21;99682.78;;;11.06;72.86
5522;BME280;2783;48.730;8.006;2023-03-18T04:38:47;99684.63;;;11.04;73.25
5522;BME280;2783;48.730;8.006;2023-03-18T04:41:12;99680.38;;;11.00;74.37
5522;BME280;2783;48.730;8.006;2023-03-18T04:43:38;99693.75;;;10.98;76.42
5522;BME280;2783;48.730;8.006;2023-03-18T04:46:03;99691.03;;;11.00;76.62
5522;BME280;2783;48.730;8.006;2023-03-18T04:48:28;99693.69;;;11.00;75.19
5522;BME280;2783;48.730;8.006;2023-03-18T04:50:54;99692.81;;;10.99;76.60
5522;BME280;2783;48.730;8.006;2023-03-18T04:53:19;99694.78;;;10.94;78.40
5522;BME280;2783;48.730;8.006;2023-03-18T04:55:45;99693.41;;;10.84;80.15
5522;BME280;2783;48.730;8.006;2023-03-18T04:58:10;99697.31;;;10.76;80.31
5522;BME280;2783;48.730;8.006;2023-03-18T05:00:36;99701.06;;;10.70;78.88
5522;BME280;2783;48.730;8.006;2023-03-18T05:03:02;99698.47;;;10.69;78.65
5522;BME280;2783;48.730;8.006;2023-03-18T05:05:27;99695.91;;;10.66;77.45
5522;BME280;2783;48.730;8.006;2023-03-18T05:07:52;99696.94;;;10.61;78.59
5522;BME280;2783;48.730;8.006;2023-03-18T05:10:18;99697.19;;;10.55;77.39
5522;BME280;2783;48.730;8.006;2023-03-18T05:12:43;99703.19;;;10.60;75.07
5522;BME280;2783;48.730;8.006;2023-03-18T05:15:09;99694.97;;;10.67;73.75
5522;BME280;2783;48.730;8.006;2023-03-18T05:17:35;99697.53;;;10.70;73.33
5522;BME280;2783;48.730;8.006;2023-03-18T05:20:00;99696.63;;;10.71;74.10
5522;BME280;2783;48.730;8.006;2023-03-18T05:22:25;99701.94;;;10.71;73.84
5522;BME280;2783;48.730;8.006;2023-03-18T05:24:51;99710.00;;;10.68;73.96
5522;BME280;2783;48.730;8.006;2023-03-18T05:27:17;99711.94;;;10.64;74.26
5522;BME280;2783;48.730;8.006;2023-03-18T05:29:43;99711.88;;;10.66;73.26
5522;BME280;2783;48.730;8.006;2023-03-18T05:32:09;99703.66;;;10.72;72.70
5522;BME280;2783;48.730;8.006;2023-03-18T05:34:36;99709.66;;;10.77;72.21
5522;BME280;2783;48.730;8.006;2023-03-18T05:37:05;99708.66;;;10.81;71.49
5522;BME280;2783;48.730;8.006;2023-03-18T05:39:30;99710.25;;;10.85;72.35
5522;BME280;2783;48.730;8.006;2023-03-18T05:41:56;99711.13;;;10.85;70.87
5522;BME280;2783;48.730;8.006;2023-03-18T05:44:21;99708.41;;;10.87;70.67
5522;BME280;2783;48.730;8.006;2023-03-18T05:46:47;99711.75;;;10.92;68.46
5522;BME280;2783;48.730;8.006;2023-03-18T05:49:12;99712.00;;;11.07;68.19
5522;BME280;2783;48.730;8.006;2023-03-18T05:51:37;99710.78;;;11.16;67.18
5522;BME280;2783;48.730;8.006;2023-03-18T05:54:03;99716.78;;;11.21;67.38
5522;BME280;2783;48.730;8.006;2023-03-18T05:56:29;99715.75;;;11.25;67.51
5522;BME280;2783;48.730;8.006;2023-03-18T05:58:55;99717.34;;;11.29;67.25
5522;BME280;2783;48.730;8.006;2023-03-18T06:01:20;99723.47;;;11.31;67.24
5522;BME280;2783;48.730;8.006;2023-03-18T06:03:45;99721.63;;;11.33;67.28
5522;BME280;2783;48.730;8.006;2023-03-18T06:06:11;99722.38;;;11.36;68.69
5522;BME280;2783;48.730;8.006;2023-03-18T06:08:36;99722.19;;;11.41;69.68
5522;BME280;2783;48.730;8.006;2023-03-18T06:11:02;99723.59;;;11.49;70.13
5522;BME280;2783;48.730;8.006;2023-03-18T06:13:28;99723.03;;;11.63;71.43
5522;BME280;2783;48.730;8.006;2023-03-18T06:15:57;99723.56;;;12.33;72.89
5522;BME280;2783;48.730;8.006;2023-03-18T06:18:22;99720.06;;;13.27;70.78
5522;BME280;2783;48.730;8.006;2023-03-18T06:20:48;99710.44;;;14.45;66.12
5522;BME280;2783;48.730;8.006;2023-03-18T06:23:13;99718.91;;;14.70;61.59
5522;BME280;2783;48.730;8.006;2023-03-18T06:25:39;99724.22;;;14.20;59.44
5522;BME280;2783;48.730;8.006;2023-03-18T06:28:05;99723.81;;;13.77;61.75
5522;BME280;2783;48.730;8.006;2023-03-18T06:30:31;99733.09;;;13.87;63.78
5522;BME280;2783;48.730;8.006;2023-03-18T06:32:58;99725.72;;;15.08;62.51
5522;BME280;2783;48.730;8.006;2023-03-18T06:35:23;99727.34;;;16.76;55.78
5522;BME280;2783;48.730;8.006;2023-03-18T06:37:50;99729.84;;;18.15;51.54
5522;BME280;2783;48.730;8.006;2023-03-18T06:40:17;99720.63;;;19.32;48.65
5522;BME280;2783;48.730;8.006;2023-03-18T06:42:42;99728.03;;;20.24;45.80
5522;BME280;2783;48.730;8.006;2023-03-18T06:45:08;99729.41;;;20.86;44.39
5522;BME280;2783;48.730;8.006;2023-03-18T06:47:34;99740.72;;;21.47;42.77
5522;BME280;2783;48.730;8.006;2023-03-18T06:49:59;99743.19;;;22.14;38.23
5522;BME280;2783;48.730;8.006;2023-03-18T06:52:25;99744.72;;;22.80;36.79
5522;BME280;2783;48.730;8.006;2023-03-18T06:54:52;99750.06;;;23.42;36.01
5522;BME280;2783;48.730;8.006;2023-03-18T06:57:17;99745.28;;;23.65;35.03
5522;BME280;2783;48.730;8.006;2023-03-18T06:59:42;99750.97;;;24.20;35.08
5522;BME280;2783;48.730;8.006;2023-03-18T07:02:09;99755.41;;;24.79;34.50
5522;BME280;2783;48.730;8.006;2023-03-18T07:04:35;99757.09;;;24.99;33.07
5522;BME280;2783;48.730;8.006;2023-03-18T07:07:00;99756.97;;;23.56;34.41
5522;BME280;2783;48.730;8.006;2023-03-18T07:09:26;99762.75;;;22.70;35.97
5522;BME280;2783;48.730;8.006;2023-03-18T07:11:51;99773.94;;;21.60;37.90
5522;BME280;2783;48.730;8.006;2023-03-18T07:14:17;99771.94;;;20.15;40.33
5522;BME280;2783;48.730;8.006;2023-03-18T07:16:43;99772.72;;;18.95;42.27
5522;BME280;2783;48.730;8.006;2023-03-18T07:19:08;99775.06;;;18.22;44.71
5522;BME280;2783;48.730;8.006;2023-03-18T07:21:33;99777.03;;;18.72;43.08
5522;BME280;2783;48.730;8.006;2023-03-18T07:23:59;99771.41;;;19.38;43.60
5522;BME280;2783;48.730;8.006;2023-03-18T07:26:25;99774.41;;;20.53;39.15
5522;BME280;2783;48.730;8.006;2023-03-18T07:28:50;99770.22;;;21.94;36.89
5522;BME280;2783;48.730;8.006;2023-03-18T07:31:16;99768.38;;;23.19;34.13
5522;BME280;2783;48.730;8.006;2023-03-18T07:33:41;99758.47;;;23.79;33.25
5522;BME280;2783;48.730;8.006;2023-03-18T07:36:06;99766.44;;;23.10;33.67
5522;BME280;2783;48.730;8.006;2023-03-18T07:38:32;99765.88;;;22.66;35.24
5522;BME280;2783;48.730;8.006;2023-03-18T07:40:58;99757.50;;;23.50;34.24
5522;BME280;2783;48.730;8.006;2023-03-18T07:43:23;99768.06;;;23.43;34.22
5522;BME280;2783;48.730;8.006;2023-03-18T07:45:49;99769.53;;;22.55;33.75
5522;BME280;2783;48.730;8.006;2023-03-18T07:48:14;99763.56;;;22.61;34.38
5522;BME280;2783;48.730;8.006;2023-03-18T07:50:39;99755.03;;;23.16;33.50
5522;BME280;2783;48.730;8.006;2023-03-18T07:53:05;99766.88;;;22.65;33.41
5522;BME280;2783;48.730;8.006;2023-03-18T07:55:31;99758.59;;;22.87;34.43
5522;BME280;2783;48.730;8.006;2023-03-18T07:57:56;99751.56;;;23.05;32.38
5522;BME280;2783;48.730;8.006;2023-03-18T08:00:22;99756.06;;;23.15;33.45
5522;BME280;2783;48.730;8.006;2023-03-18T08:02:47;99751.16;;;23.30;33.17
5522;BME280;2783;48.730;8.006;2023-03-18T08:05:13;99758.56;;;23.28;32.93
5522;BME280;2783;48.730;8.006;2023-03-18T08:07:39;99761.41;;;23.26;31.85
5522;BME280;2783;48.730;8.006;2023-03-18T08:10:05;99765.38;;;23.22;33.17
5522;BME280;2783;48.730;8.006;2023-03-18T08:12:30;99768.47;;;23.38;31.14
5522;BME280;2783;48.730;8.006;2023-03-18T08:14:56;99772.38;;;22.74;33.18
5522;BME280;2783;48.730;8.006;2023-03-18T08:17:21;99779.88;;;22.50;33.06
5522;BME280;2783;48.730;8.006;2023-03-18T08:19:47;99775.06;;;22.74;34.03
5522;BME280;2783;48.730;8.006;2023-03-18T08:22:13;99775.84;;;23.06;32.64
5522;BME280;2783;48.730;8.006;2023-03-18T08:24:38;99770.72;;;23.64;33.32
5522;BME280;2783;48.730;8.006;2023-03-18T08:27:04;99776.06;;;23.14;33.33
5522;BME280;2783;48.730;8.006;2023-03-18T08:29:29;99787.22;;;22.28;34.09
5522;BME280;2783;48.730;8.006;2023-03-18T08:31:54;99786.47;;;21.83;34.88
5522;BME280;2783;48.730;8.006;2023-03-18T08:34:19;99785.16;;;22.20;34.67
5522;BME280;2783;48.730;8.006;2023-03-18T08:36:46;99782.00;;;22.36;33.58
5522;BME280;2783;48.730;8.006;2023-03-18T08:39:12;99786.19;;;22.08;34.16
5522;BME280;2783;48.730;8.006;2023-03-18T08:41:37;99778.81;;;22.31;33.47
5522;BME280;2783;48.730;8.006;2023-03-18T08:44:02;99767.94;;;22.73;33.39
5522;BME280;2783;48.730;8.006;2023-03-18T08:46:30;99764.72;;;22.48;33.27
5522;BME280;2783;48.730;8.006;2023-03-18T08:48:55;99772.28;;;22.01;33.76
5522;BME280;2783;48.730;8.006;2023-03-18T08:51:21;99770.88;;;21.64;34.16
5522;BME280;2783;48.730;8.006;2023-03-18T08:53:46;99776.56;;;21.28;34.67
5522;BME280;2783;48.730;8.006;2023-03-18T08:56:12;99767.44;;;21.84;35.33
5522;BME280;2783;48.730;8.006;2023-03-18T08:58:39;99760.91;;;22.50;34.56
5522;BME280;2783;48.730;8.006;2023-03-18T09:01:04;99759.84;;;23.03;32.63
5522;BME280;2783;48.730;8.006;2023-03-18T09:03:30;99753.06;;;23.18;32.42
5522;BME280;2783;48.730;8.006;2023-03-18T09:05:55;99754.81;;;23.19;32.00
5522;BME280;2783;48.730;8.006;2023-03-18T09:08:21;99758.63;;;23.37;33.30
5522;BME280;2783;48.730;8.006;2023-03-18T09:10:49;99754.25;;;23.56;32.33
5522;BME280;2783;48.730;8.006;2023-03-18T09:13:15;99755.63;;;23.20;31.37
5522;BME280;2783;48.730;8.006;2023-03-18T09:15:40;99758.66;;;22.76;31.97
5522;BME280;2783;48.730;8.006;2023-03-18T09:18:06;99762.53;;;22.42;33.08
5522;BME280;2783;48.730;8.006;2023-03-18T09:20:31;99757.94;;;22.53;34.31
5522;BME280;2783;48.730;8.006;2023-03-18T09:22:57;99749.94;;;22.72;32.86
5522;BME280;2783;48.730;8.006;2023-03-18T09:25:23;99751.00;;;23.01;31.86
5522;BME280;2783;48.730;8.006;2023-03-18T09:27:48;99752.78;;;22.71;32.19
5522;BME280;2783;48.730;8.006;2023-03-18T09:30:14;99758.34;;;22.17;33.41
5522;BME280;2783;48.730;8.006;2023-03-18T09:32:39;99751.97;;;22.07;34.25
5522;BME280;2783;48.730;8.006;2023-03-18T09:35:05;99747.47;;;22.49;32.25
5522;BME280;2783;48.730;8.006;2023-03-18T09:37:31;99748.56;;;22.46;32.55
5522;BME280;2783;48.730;8.006;2023-03-18T09:39:56;99742.63;;;22.32;33.11
5522;BME280;2783;48.730;8.006;2023-03-18T09:45:00;99743.09;;;21.51;33.98
5522;BME280;2783;48.730;8.006;2023-03-18T09:50:20;99750.41;;;22.77;32.83
5522;BME280;2783;48.730;8.006;2023-03-18T09:53:00;99748.50;;;22.68;32.47
5522;BME280;2783;48.730;8.006;2023-03-18T09:55:30;99752.25;;;22.25;32.68
5522;BME280;2783;48.730;8.006;2023-03-18T09:57:59;99741.47;;;22.13;32.54
5522;BME280;2783;48.730;8.006;2023-03-18T10:00:30;99743.97;;;21.30;31.74
5522;BME280;2783;48.730;8.006;2023-03-18T10:02:58;99743.81;;;20.98;33.39
5522;BME280;2783;48.730;8.006;2023-03-18T10:05:33;99752.56;;;21.13;32.48
5522;BME280;2783;48.730;8.006;2023-03-18T10:08:23;99746.63;;;21.63;33.94
5522;BME280;2783;48.730;8.006;2023-03-18T10:10:45;99743.53;;;21.78;32.30
5522;BME280;2783;48.730;8.006;2023-03-18T10:13:28;99743.34;;;22.34;33.08
5522;BME280;2783;48.730;8.006;2023-03-18T10:15:56;99742.22;;;22.36;32.78
5522;BME280;2783;48.730;8.006;2023-03-18T10:21:00;99740.78;;;22.94;33.11
5522;BME280;2783;48.730;8.006;2023-03-18T10:26:21;99752.78;;;23.21;33.42
5522;BME280;2783;48.730;8.006;2023-03-18T10:34:17;99738.78;;;23.47;33.16
5522;BME280;2783;48.730;8.006;2023-03-18T10:36:46;99744.47;;;23.93;32.00
5522;BME280;2783;48.730;8.006;2023-03-18T10:39:16;99738.53;;;24.08;33.21
5522;BME280;2783;48.730;8.006;2023-03-18T10:41:42;99742.81;;;24.11;32.61
5522;BME280;2783;48.730;8.006;2023-03-18T10:44:31;99740.53;;;24.54;32.93
5522;BME280;2783;48.730;8.006;2023-03-18T10:46:58;99743.56;;;25.16;33.21
5522;BME280;2783;48.730;8.006;2023-03-18T10:49:26;99736.06;;;25.37;31.37
5522;BME280;2783;48.730;8.006;2023-03-18T10:52:00;99730.31;;;25.31;30.92
5522;BME280;2783;48.730;8.006;2023-03-18T10:54:39;99729.63;;;24.63;31.33
5522;BME280;2783;48.730;8.006;2023-03-18T10:57:07;99726.25;;;24.33;32.04
5522;BME280;2783;48.730;8.006;2023-03-18T10:59:33;99727.81;;;24.54;31.91
5522;BME280;2783;48.730;8.006;2023-03-18T11:02:03;99735.25;;;24.05;31.76
5522;BME280;2783;48.730;8.006;2023-03-18T11:04:30;99726.06;;;23.37;32.49
5522;BME280;2783;48.730;8.006;2023-03-18T11:06:59;99729.91;;;23.14;33.25
5522;BME280;2783;48.730;8.006;2023-03-18T11:09:30;99731.03;;;23.12;33.83
5522;BME280;2783;48.730;8.006;2023-03-18T11:11:56;99722.03;;;22.81;33.88
5522;BME280;2783;48.730;8.006;2023-03-18T11:14:26;99723.13;;;22.99;34.70
5522;BME280;2783;48.730;8.006;2023-03-18T11:16:57;99723.50;;;23.15;34.00
5522;BME280;2783;48.730;8.006;2023-03-18T11:19:28;99720.50;;;23.49;34.76
5522;BME280;2783;48.730;8.006;2023-03-18T11:22:00;99726.91;;;23.97;34.58
5522;BME280;2783;48.730;8.006;2023-03-18T11:24:28;99723.66;;;24.03;32.50
5522;BME280;2783;48.730;8.006;2023-03-18T11:27:00;99718.03;;;23.95;34.38
5522;BME280;2783;48.730;8.006;2023-03-18T11:29:26;99714.47;;;24.04;33.51
5522;BME280;2783;48.730;8.006;2023-03-18T11:31:58;99715.09;;;23.58;32.68
5522;BME280;2783;48.730;8.006;2023-03-18T11:34:26;99708.63;;;23.50;34.67
5522;BME280;2783;48.730;8.006;2023-03-18T11:37:13;99697.56;;;23.72;32.92
5522;BME280;2783;48.730;8.006;2023-03-18T11:39:38;99700.19;;;24.02;33.55
5522;BME280;2783;48.730;8.006;2023-03-18T11:42:17;99699.03;;;24.04;32.14
5522;BME280;2783;48.730;8.006;2023-03-18T11:44:43;99695.16;;;24.35;34.00
5522;BME280;2783;48.730;8.006;2023-03-18T11:47:12;99702.75;;;24.32;33.27
5522;BME280;2783;48.730;8.006;2023-03-18T11:49:38;99697.13;;;24.62;32.10
5522;BME280;2783;48.730;8.006;2023-03-18T12:07:35;99682.72;;;24.23;34.11
5522;BME280;2783;48.730;8.006;2023-03-18T12:12:53;99676.13;;;24.45;31.56
5522;BME280;2783;48.730;8.006;2023-03-18T12:20:50;99676.19;;;24.91;30.50
5522;BME280;2783;48.730;8.006;2023-03-18T12:28:39;99676.16;;;25.64;29.84
5522;BME280;2783;48.730;8.006;2023-03-18T12:36:16;99663.44;;;25.28;28.90
5522;BME280;2783;48.730;8.006;2023-03-18T12:41:49;99662.81;;;24.98;31.21
5522;BME280;2783;48.730;8.006;2023-03-18T12:44:42;99661.47;;;25.48;29.28
5522;BME280;2783;48.730;8.006;2023-03-18T12:47:08;99653.63;;;25.62;29.20
5522;BME280;2783;48.730;8.006;2023-03-18T12:49:39;99652.25;;;25.93;29.17
5522;BME280;2783;48.730;8.006;2023-03-18T12:52:24;99655.13;;;25.74;28.26
5522;BME280;2783;48.730;8.006;2023-03-18T12:55:11;99649.78;;;25.82;29.07
5522;BME280;2783;48.730;8.006;2023-03-18T13:00:22;99660.50;;;25.66;28.38
5522;BME280;2783;48.730;8.006;2023-03-18T13:10:50;99645.63;;;25.07;29.24
5522;BME280;2783;48.730;8.006;2023-03-18T13:13:18;99651.44;;;25.48;28.67
5522;BME280;2783;48.730;8.006;2023-03-18T13:15:50;99643.69;;;25.53;27.97
5522;BME280;2783;48.730;8.006;2023-03-18T13:20:47;99644.19;;;25.57;30.02
5522;BME280;2783;48.730;8.006;2023-03-18T13:30:55;99635.59;;;25.96;27.16
5522;BME280;2783;48.730;8.006;2023-03-18T13:38:45;99641.06;;;24.98;27.64
5522;BME280;2783;48.730;8.006;2023-03-18T13:43:43;99637.56;;;25.15;29.66
5522;BME280;2783;48.730;8.006;2023-03-18T13:46:23;99634.75;;;24.51;29.26
5522;BME280;2783;48.730;8.006;2023-03-18T13:48:55;99630.09;;;24.05;29.64
5522;BME280;2783;48.730;8.006;2023-03-18T13:53:49;99635.81;;;24.31;30.31
5522;BME280;2783;48.730;8.006;2023-03-18T13:59:00;99623.63;;;23.59;30.71
5522;BME280;2783;48.730;8.006;2023-03-18T14:01:28;99624.91;;;23.45;30.44
5522;BME280;2783;48.730;8.006;2023-03-18T14:06:38;99626.19;;;23.01;29.86
5522;BME280;2783;48.730;8.006;2023-03-18T14:09:30;99621.41;;;22.84;31.49
5522;BME280;2783;48.730;8.006;2023-03-18T14:12:09;99619.31;;;22.97;32.18
5522;BME280;2783;48.730;8.006;2023-03-18T14:19:54;99608.88;;;22.93;31.24
5522;BME280;2783;48.730;8.006;2023-03-18T14:25:07;99605.34;;;23.11;31.93
5522;BME280;2783;48.730;8.006;2023-03-18T14:27:43;99610.28;;;23.36;31.14
5522;BME280;2783;48.730;8.006;2023-03-18T14:33:56;99601.78;;;23.01;32.43
5522;BME280;2783;48.730;8.006;2023-03-18T14:36:03;99601.50;;;22.74;32.24
5522;BME280;2783;48.730;8.006;2023-03-18T14:38:48;99597.63;;;22.67;32.29
5522;BME280;2783;48.730;8.006;2023-03-18T14:41:21;99598.31;;;22.39;32.74
5522;BME280;2783;48.730;8.006;2023-03-18T14:46:20;99589.28;;;22.08;32.73
5522;BME280;2783;48.730;8.006;2023-03-18T14:48:49;99582.22;;;22.17;31.70
5522;BME280;2783;48.730;8.006;2023-03-18T14:51:16;99587.22;;;22.22;31.64
5522;BME280;2783;48.730;8.006;2023-03-18T14:53:49;99590.16;;;22.39;33.81
5522;BME280;2783;48.730;8.006;2023-03-18T14:56:17;99587.16;;;22.53;32.66
5522;BME280;2783;48.730;8.006;2023-03-18T14:58:44;99586.28;;;22.53;33.54
5522;BME280;2783;48.730;8.006;2023-03-18T15:01:11;99580.19;;;22.40;33.41
5522;BME280;2783;48.730;8.006;2023-03-18T15:03:38;99579.03;;;22.12;32.66
5522;BME280;2783;48.730;8.006;2023-03-18T15:06:04;99587.94;;;22.03;33.45
5522;BME280;2783;48.730;8.006;2023-03-18T15:08:32;99578.06;;;21.92;33.83
5522;BME280;2783;48.730;8.006;2023-03-18T15:10:58;99583.78;;;21.78;31.20
5522;BME280;2783;48.730;8.006;2023-03-18T15:13:26;99582.91;;;21.78;31.01